Ellsinore, MO (63937)

12:26 AM CDT on July 13, 2014 (GMT -0500)
Poplar Bluff Municipal (KPOF) Elev 328 ft | 36.77 °N, 90.32 °W | Change Station

Current weather conditions updated 33 minutes ago

Clear
Clear
77 °F
Feels Like 77 °F
N
4
Wind Variable Wind from SSW

Today is forecast to be Warmer than yesterday. Morning thunderstorms.

Today
High -- | Low -- °F
--% Chance of Precip.
Yesterday
High -- | Low -- °F
Precip. -- in
5:53 AM 8:23 PM
Full, 99% visible
Pressure 30.04 in
Visibility 10.0 miles
Clouds Clear
Dew Point 71 °F
Humidity 82%
Rainfall 0.00 in
Snow Depth Not available.
UV 0 out of 12
Pollen 3.70 out of 12
Air Quality Not available.
Flu Activity Sporadic
METAR KPOF 130453Z AUTO 20003KT 10SM CLR 25/22 A3006 RMK AO2 SLP173 T02500217

More Conditions Fewer Conditions

Pressure 30.04 in
Visibility 10.0 miles
Clouds Clear
Dew Point 71 °F
Humidity 82%
Rainfall 0.00 in
Snow Depth Not available.
UV 0 out of 12
Pollen 3.70 out of 12
Air Quality Not available.
Flu Activity Sporadic
METAR KPOF 130453Z AUTO 20003KT 10SM CLR 25/22 A3006 RMK AO2 SLP173 T02500217

More Conditions Fewer Conditions

10-Day Weather Forecast

Almanac

Astronomy

Jul. 13, 2014 Rise Set
Actual Time 5:53 AM CDT 8:23 PM CDT
Civil Twilight 5:23 AM CDT 8:53 PM CDT
Nautical Twilight 4:46 AM CDT 9:30 PM CDT
Astronomical Twilight 4:05 AM CDT 10:11 PM CDT
Moon 9:15 PM CDT 7:21 AM CDT
Length of Visible Light 15h 29m
Length of Day
14h 29m
Tomorrow will be 1m 7s shorter.
Full, 99% of the Moon is Illuminated
Today
Full
Jul 18
Last Quarter
Jul 26
New
Aug 3
First Quarter
Aug 10
Full

Today's Extremes

State Highs State Lows

Community

WunderPhotos

Upload Photos

1,733,113 photos uploaded!

Nearby

Snow Depth

Station Depth Elevation
No new snow has been reported.

Earthquake Activity

City Distance Mag. Time & Date
No recent earthquake activity has been reported nearby.
Minimum magnitude displayed is 2.5.

Coastal Water Temperatures

Place Temperature
No Stations Reporting

Nearby Weather Stations

Station Location Temp. Heat Index Dew Point Humidity Wind Precip. Elev Updated Type
MesoWest WILVIL , Mill Spring, MO 73 °F 71 °F - - North  at  - 0.00 in / hr 414 ft 10:40 PM CDT MADIS
RAWS BIG SPRING MO, Van Buren, MO 79 °F 82 °F 70 °F 75% South  at  2 mph 0.00 in / hr 631 ft 11:22 PM CDT MADIS
RAWS DONIPHAN MO, Doniphan, MO 75 °F 75 °F 70 °F 85% West  at  2 mph 0.00 in / hr 634 ft 10:53 PM CDT MADIS

Show More Stations Show Fewer Stations